Time;durP1;ratioP1;P1;durP2;ratioP2;P2;SDS_P1;SDS_P2;PMS_P1;PMS_P2;Temp;Humidity;BMP_temperature;BMP_pressure;BME280_temperature;BME280_humidity;BME280_pressure;Samples;Min_cycle;Max_cycle;Signal;HPM_P1;HPM_P2
2021/11/24 00:01:19;;;;;;;70.28;34.17;;;;;;;6.82;82.30;100704.31;5032570;28;20051;-73
2021/11/24 00:03:45;;;;;;;88.85;40.22;;;;;;;6.88;82.21;100705.03;5034393;28;20040;-74
2021/11/24 00:06:10;;;;;;;76.00;40.90;;;;;;;6.93;81.83;100697.09;5034665;28;20431;-73
2021/11/24 00:08:36;;;;;;;81.88;39.75;;;;;;;6.76;82.29;100694.81;5032302;28;20037;-73
2021/11/24 00:11:01;;;;;;;66.25;37.80;;;;;;;6.68;82.78;100699.34;5030382;28;20094;-73
2021/11/24 00:13:27;;;;;;;104.13;60.90;;;;;;;6.67;84.22;100692.38;5030403;28;20390;-73
2021/11/24 00:15:52;;;;;;;81.50;39.13;;;;;;;6.68;83.08;100699.34;5030777;28;20079;-73
2021/11/24 00:18:17;;;;;;;69.00;36.80;;;;;;;6.71;83.53;100696.66;5030481;28;20116;-73
2021/11/24 00:20:43;;;;;;;57.33;29.40;;;;;;;6.66;83.30;100682.78;5029740;28;20041;-73
2021/11/24 00:23:08;;;;;;;51.88;28.13;;;;;;;6.61;83.22;100688.09;5030394;28;20033;-73
2021/11/24 00:25:33;;;;;;;49.40;25.92;;;;;;;6.59;83.06;100676.78;5030034;28;20485;-74
2021/11/24 00:27:59;;;;;;;61.15;33.40;;;;;;;6.78;82.77;100689.53;5029900;28;20025;-73
2021/11/24 00:30:25;;;;;;;79.72;47.47;;;;;;;6.93;84.97;100683.13;5028689;28;20037;-73
2021/11/24 00:32:51;;;;;;;57.80;32.65;;;;;;;7.13;80.48;100687.97;5030014;28;20044;-73
2021/11/24 00:35:16;;;;;;;56.60;30.70;;;;;;;6.90;81.07;100696.31;5029723;28;20121;-72
2021/11/24 00:37:41;;;;;;;53.38;29.70;;;;;;;6.91;82.66;100685.78;5030127;28;20041;-72
2021/11/24 00:40:08;;;;;;;67.57;32.55;;;;;;;6.83;81.45;100693.78;5029464;28;20064;-73
2021/11/24 00:42:34;;;;;;;51.47;27.88;;;;;;;6.77;81.80;100691.31;5029903;28;20034;-73
2021/11/24 00:44:59;;;;;;;45.95;26.05;;;;;;;6.72;82.19;100679.16;5029865;28;20543;-72
2021/11/24 00:47:24;;;;;;;39.28;23.95;;;;;;;6.70;82.48;100681.81;5026228;28;20510;-73
2021/11/24 00:49:50;;;;;;;55.67;27.65;;;;;;;6.65;81.89;100686.28;5028481;28;20116;-72
2021/11/24 00:52:16;;;;;;;50.90;30.83;;;;;;;6.58;82.87;100682.06;5027195;28;20034;-73
2021/11/24 00:54:41;;;;;;;51.25;26.33;;;;;;;6.55;82.68;100677.75;5029097;28;20731;-73
2021/11/24 00:57:07;;;;;;;61.22;29.52;;;;;;;6.50;82.79;100676.97;5029170;28;20079;-73
2021/11/24 00:59:32;;;;;;;73.30;30.85;;;;;;;6.45;83.08;100684.91;5028524;28;20037;-71
2021/11/24 01:01:58;;;;;;;55.03;29.77;;;;;;;6.38;83.54;100677.19;5029203;28;20033;-71
2021/11/24 01:04:23;;;;;;;65.00;28.83;;;;;;;6.40;83.63;100671.03;5028837;28;20037;-72
2021/11/24 01:06:48;;;;;;;49.75;26.17;;;;;;;6.36;83.37;100676.34;5029216;28;20030;-72
2021/11/24 01:09:14;;;;;;;50.72;26.42;;;;;;;6.34;83.81;100665.88;5029328;28;20039;-73
2021/11/24 01:11:40;;;;;;;53.47;27.55;;;;;;;6.34;83.61;100659.78;5028715;28;20087;-72
2021/11/24 01:14:06;;;;;;;62.78;31.30;;;;;;;6.26;83.50;100662.53;5027729;28;20746;-72
2021/11/24 01:16:31;;;;;;;48.35;27.05;;;;;;;6.27;83.95;100664.25;5030579;28;20034;-72
2021/11/24 01:18:56;;;;;;;52.50;26.65;;;;;;;6.28;83.68;100660.75;5029347;28;20444;-73
2021/11/24 01:21:22;;;;;;;52.05;25.88;;;;;;;6.28;83.96;100665.16;5042398;28;20033;-72
2021/11/24 01:23:47;;;;;;;73.25;31.02;;;;;;;6.26;83.90;100665.16;5049145;28;20481;-72
2021/11/24 01:26:14;;;;;;;44.00;24.65;;;;;;;6.27;84.37;100668.63;5049663;28;20029;-72
2021/11/24 01:28:40;;;;;;;61.25;27.83;;;;;;;6.29;83.69;100664.25;5046831;28;20085;-73
2021/11/24 01:31:05;;;;;;;53.78;24.67;;;;;;;6.27;83.69;100656.41;5048490;28;20041;-71
2021/11/24 01:33:31;;;;;;;42.38;24.00;;;;;;;6.28;83.95;100657.28;5048716;28;20041;-72
2021/11/24 01:35:56;;;;;;;50.65;26.35;;;;;;;6.31;83.98;100655.47;5048567;28;20039;-71
2021/11/24 01:38:22;;;;;;;43.10;22.98;;;;;;;6.27;83.73;100653.78;5047329;28;20033;-72
2021/11/24 01:40:47;;;;;;;47.28;25.30;;;;;;;6.28;83.50;100652.06;5046402;28;20053;-72
2021/11/24 01:43:13;;;;;;;54.05;25.35;;;;;;;6.22;83.80;100647.75;5030991;28;20032;-72
2021/11/24 01:45:38;;;;;;;50.72;27.77;;;;;;;6.22;83.82;100646.00;5048860;28;20396;-72
2021/11/24 01:48:05;;;;;;;42.47;22.63;;;;;;;6.23;83.88;100647.75;5047543;28;20059;-72
2021/11/24 01:50:30;;;;;;;61.78;27.83;;;;;;;6.28;84.08;100655.53;5046911;28;20033;-71
2021/11/24 01:52:56;;;;;;;46.40;26.00;;;;;;;6.28;84.00;100654.66;5050452;28;20098;-71
2021/11/24 01:55:22;;;;;;;46.22;25.73;;;;;;;6.24;83.57;100651.22;5043886;28;20456;-71
2021/11/24 01:57:50;;;;;;;45.20;25.55;;;;;;;6.28;84.06;100646.81;5030145;28;20096;-71
2021/11/24 02:00:19;;;;;;;60.53;27.35;;;;;;;6.21;83.46;100641.66;5028125;28;20560;-73
2021/11/24 02:02:45;;;;;;;44.47;23.40;;;;;;;6.23;83.83;100637.28;5000706;28;20107;-74
2021/11/24 02:05:10;;;;;;;57.28;25.42;;;;;;;6.23;83.71;100637.28;5027623;28;20041;-73
2021/11/24 02:07:36;;;;;;;54.63;24.23;;;;;;;6.28;83.68;100629.34;5026837;28;20620;-72
2021/11/24 02:10:03;;;;;;;44.67;27.20;;;;;;;6.31;83.90;100628.41;5027344;28;20045;-72
2021/11/24 02:12:28;;;;;;;45.42;26.40;;;;;;;6.31;83.53;100628.41;5027967;28;20037;-72
2021/11/24 02:14:53;;;;;;;53.97;28.95;;;;;;;6.22;83.10;100625.06;5028551;28;20545;-71
2021/11/24 02:17:19;;;;;;;48.40;26.88;;;;;;;6.22;84.25;100617.19;5027663;28;20099;-73
2021/11/24 02:19:44;;;;;;;48.75;27.90;;;;;;;6.29;83.78;100615.34;5023625;28;20033;-73
2021/11/24 02:22:11;;;;;;;40.80;24.85;;;;;;;6.33;83.43;100610.94;5027424;28;20446;-72
2021/11/24 02:24:38;;;;;;;42.33;24.98;;;;;;;6.34;83.14;100608.25;5028140;28;20135;-71
2021/11/24 02:27:06;;;;;;;45.33;24.52;;;;;;;6.20;84.04;100607.66;5029140;28;20436;-73
2021/11/24 02:29:32;;;;;;;43.75;23.75;;;;;;;6.14;83.91;100610.38;5028913;28;20041;-73
2021/11/24 02:31:59;;;;;;;40.33;22.08;;;;;;;6.17;84.10;100602.47;5028987;28;20061;-74
2021/11/24 02:34:26;;;;;;;49.70;25.30;;;;;;;6.20;84.29;100599.78;5029014;28;20041;-73
2021/11/24 02:36:52;;;;;;;46.17;26.05;;;;;;;6.18;83.74;100593.75;5027802;28;20040;-73
2021/11/24 02:39:18;;;;;;;57.33;28.25;;;;;;;6.15;83.82;100593.78;5027350;28;20040;-73
2021/11/24 02:41:43;;;;;;;47.28;25.73;;;;;;;6.14;84.45;100582.44;5027444;28;20437;-72
2021/11/24 02:44:36;;;;;;;50.55;25.40;;;;;;;6.18;83.79;100593.75;5027406;28;20040;-72
2021/11/24 02:47:06;;;;;;;51.10;27.08;;;;;;;6.12;84.14;100586.00;5027387;28;20382;-72
2021/11/24 02:49:36;;;;;;;41.95;25.40;;;;;;;6.14;84.11;100581.59;5026559;28;20552;-72
2021/11/24 02:52:02;;;;;;;49.20;25.42;;;;;;;6.09;84.14;100589.53;5027440;28;20030;-72
2021/11/24 02:54:28;;;;;;;50.47;27.67;;;;;;;6.07;84.38;100583.44;5026892;28;20038;-72
2021/11/24 02:56:53;;;;;;;57.33;27.48;;;;;;;6.01;84.69;100586.19;5026212;28;20052;-72
2021/11/24 02:59:21;;;;;;;57.60;28.15;;;;;;;6.04;85.06;100580.03;5026392;28;20053;-71
2021/11/24 03:01:46;;;;;;;66.90;29.10;;;;;;;6.07;84.34;100574.75;5027184;28;20033;-72
2021/11/24 03:04:12;;;;;;;56.35;28.42;;;;;;;6.09;84.44;100571.19;5027113;28;20040;-71
2021/11/24 03:06:37;;;;;;;53.67;26.58;;;;;;;6.05;84.72;100566.91;5027234;28;20615;-72
2021/11/24 03:09:03;;;;;;;58.33;29.23;;;;;;;6.06;84.98;100570.41;5025295;28;20397;-70
2021/11/24 03:11:29;;;;;;;47.40;28.10;;;;;;;6.10;84.73;100558.97;5026856;28;20096;-71
2021/11/24 03:13:54;;;;;;;53.40;27.38;;;;;;;6.05;84.34;100548.56;5027691;28;20495;-72
2021/11/24 03:16:20;;;;;;;49.20;25.92;;;;;;;6.06;85.06;100539.84;5027297;28;20053;-73
2021/11/24 03:18:45;;;;;;;51.53;28.63;;;;;;;6.06;84.56;100539.84;5026492;28;20040;-72
2021/11/24 03:21:10;;;;;;;47.75;26.67;;;;;;;6.10;84.54;100546.75;5027103;28;20504;-72
2021/11/24 03:23:36;;;;;;;51.20;26.02;;;;;;;6.10;84.10;100532.78;5027072;28;20039;-72
2021/11/24 03:26:01;;;;;;;64.63;28.20;;;;;;;6.07;84.13;100527.63;5027233;28;20029;-72
2021/11/24 03:28:27;;;;;;;67.88;30.02;;;;;;;6.04;84.13;100530.31;5039907;28;20033;-71
2021/11/24 03:30:52;;;;;;;56.60;27.15;;;;;;;6.07;84.63;100525.00;5047388;28;20044;-71
2021/11/24 03:33:18;;;;;;;68.43;29.50;;;;;;;6.07;84.02;100520.63;5047382;28;20621;-72
2021/11/24 03:35:43;;;;;;;40.47;25.80;;;;;;;6.08;84.43;100522.38;5048639;28;20044;-72
2021/11/24 03:38:09;;;;;;;44.33;25.77;;;;;;;6.09;84.13;100512.75;5051375;28;20036;-72
2021/11/24 03:40:35;;;;;;;63.45;28.52;;;;;;;6.06;83.55;100508.44;5051771;28;20511;-72
2021/11/24 03:43:02;;;;;;;45.35;26.20;;;;;;;6.06;84.17;100510.22;5052098;28;20064;-72
2021/11/24 03:45:30;;;;;;;50.22;27.23;;;;;;;6.04;83.83;100512.84;5051684;28;20041;-71
2021/11/24 03:47:57;;;;;;;49.55;27.92;;;;;;;5.98;84.00;100505.09;5052065;28;20558;-72
2021/11/24 03:50:23;;;;;;;43.40;23.65;;;;;;;5.97;84.41;100498.16;5051567;28;20055;-72
2021/11/24 03:52:48;;;;;;;44.05;25.40;;;;;;;6.00;84.18;100498.06;5051222;28;20045;-72
2021/11/24 03:55:16;;;;;;;42.88;25.70;;;;;;;6.00;83.79;100498.06;5051098;28;20480;-72
2021/11/24 03:57:42;;;;;;;47.75;27.40;;;;;;;5.98;84.27;100492.88;5051027;28;20040;-71
2021/11/24 04:00:14;;;;;;;52.10;28.15;;;;;;;6.01;83.98;100497.22;5047844;28;20122;-71
2021/11/24 04:02:39;;;;;;;51.25;25.77;;;;;;;5.97;83.93;100487.69;5030258;28;20041;-71
2021/11/24 04:05:07;;;;;;;52.78;27.75;;;;;;;5.92;84.00;100476.41;5030420;28;20095;-72
2021/11/24 04:07:33;;;;;;;52.35;28.23;;;;;;;5.91;83.92;100482.53;5030333;28;20064;-72
2021/11/24 04:09:58;;;;;;;51.13;27.38;;;;;;;5.94;84.32;100483.38;5029868;28;20061;-72
2021/11/24 04:12:24;;;;;;;50.88;28.45;;;;;;;5.88;84.13;100483.47;5029707;28;20520;-71
2021/11/24 04:14:49;;;;;;;41.20;25.45;;;;;;;5.93;84.44;100484.25;5030452;28;20048;-71
2021/11/24 04:17:15;;;;;;;44.90;27.27;;;;;;;5.96;84.34;100486.81;5029246;28;20033;-72
2021/11/24 04:19:41;;;;;;;47.40;27.65;;;;;;;5.96;84.26;100481.59;5027061;28;20033;-72
2021/11/24 04:22:07;;;;;;;51.53;28.58;;;;;;;5.93;84.05;100480.72;5030139;28;20095;-72
2021/11/24 04:24:34;;;;;;;45.35;27.02;;;;;;;5.97;84.45;100477.22;5030045;28;20056;-72
2021/11/24 04:26:59;;;;;;;46.20;28.77;;;;;;;5.98;84.00;100471.06;5030140;28;20037;-72
2021/11/24 04:29:25;;;;;;;74.40;34.65;;;;;;;5.97;83.78;100472.81;5030317;28;20481;-71
2021/11/24 04:31:50;;;;;;;79.13;33.85;;;;;;;5.98;83.60;100469.34;5030439;28;20404;-71
2021/11/24 04:34:15;;;;;;;53.45;32.35;;;;;;;5.94;83.97;100462.44;5030107;28;20109;-71
2021/11/24 04:36:41;;;;;;;55.80;31.23;;;;;;;5.99;84.30;100468.44;5029662;28;20539;-71
2021/11/24 04:39:06;;;;;;;65.95;32.40;;;;;;;5.96;84.24;100459.78;5029160;28;20065;-71
2021/11/24 04:41:32;;;;;;;56.70;28.90;;;;;;;5.93;83.80;100454.56;5029834;28;20033;-71
2021/11/24 04:43:57;;;;;;;57.38;28.45;;;;;;;5.96;84.14;100441.47;5029835;28;20046;-71
2021/11/24 04:46:23;;;;;;;71.55;32.83;;;;;;;5.96;84.09;100444.94;5029814;28;20030;-72
2021/11/24 04:48:49;;;;;;;57.80;32.10;;;;;;;5.95;83.98;100448.44;5027709;28;20057;-71
2021/11/24 04:51:15;;;;;;;53.25;30.48;;;;;;;5.89;83.65;100445.06;5029743;28;20057;-71
2021/11/24 04:53:40;;;;;;;52.53;27.83;;;;;;;5.85;84.10;100441.63;5028021;28;20732;-72
2021/11/24 04:56:06;;;;;;;67.45;32.38;;;;;;;5.88;83.56;100448.56;5029348;28;20037;-71
2021/11/24 04:58:31;;;;;;;62.17;29.15;;;;;;;5.91;83.54;100449.38;5031638;28;20599;-71
2021/11/24 05:00:56;;;;;;;57.17;29.15;;;;;;;5.93;83.66;100438.84;5029898;28;20049;-72
2021/11/24 05:03:22;;;;;;;45.95;26.08;;;;;;;5.95;83.38;100435.34;5030110;28;20033;-70
2021/11/24 05:05:47;;;;;;;52.97;26.23;;;;;;;5.94;83.39;100438.03;5029886;28;20041;-74
2021/11/24 05:08:13;;;;;;;59.00;28.48;;;;;;;5.93;83.74;100447.59;5031838;28;20037;-73
2021/11/24 05:10:38;;;;;;;50.67;26.40;;;;;;;5.91;83.52;100436.28;5029712;28;20451;-73
2021/11/24 05:13:07;;;;;;;48.17;25.70;;;;;;;5.91;83.49;100436.28;5029505;28;20107;-72
2021/11/24 05:15:36;;;;;;;54.03;27.58;;;;;;;5.95;83.74;100442.34;5029309;28;20043;-72
2021/11/24 05:18:05;;;;;;;74.07;35.13;;;;;;;5.88;82.83;100451.16;5029283;28;20034;-72
2021/11/24 05:20:33;;;;;;;56.42;30.73;;;;;;;5.84;83.60;100445.16;5028357;28;20056;-72
2021/11/24 05:23:02;;;;;;;61.58;28.52;;;;;;;5.88;83.82;100441.59;5029053;28;20042;-72
2021/11/24 05:25:29;;;;;;;58.50;27.85;;;;;;;5.90;83.95;100437.16;5028926;28;20045;-72
2021/11/24 05:27:55;;;;;;;64.05;31.55;;;;;;;5.90;83.45;100438.94;5038834;28;20036;-72
2021/11/24 05:30:21;;;;;;;72.25;31.95;;;;;;;5.93;83.59;100438.84;5048052;28;20040;-72
2021/11/24 05:32:47;;;;;;;61.58;29.98;;;;;;;5.93;84.05;100437.13;5048728;28;20382;-72
2021/11/24 05:35:12;;;;;;;61.83;30.27;;;;;;;5.94;83.84;100428.41;5048827;28;20124;-72
2021/11/24 05:37:38;;;;;;;57.72;29.55;;;;;;;5.95;83.86;100437.13;5047162;28;20037;-72
2021/11/24 05:40:04;;;;;;;59.35;28.23;;;;;;;5.97;83.67;100433.56;5047839;28;20049;-71
2021/11/24 05:42:30;;;;;;;68.32;31.30;;;;;;;6.00;84.04;100427.41;5048465;28;20029;-72
2021/11/24 05:45:10;;;;;;;66.57;30.40;;;;;;;5.96;83.90;100431.00;5048730;28;20033;-72
2021/11/24 05:47:54;;;;;;;78.72;35.30;;;;;;;5.91;83.68;100424.97;5048623;28;20039;-71
2021/11/24 05:50:24;;;;;;;77.30;35.92;;;;;;;5.83;84.71;100425.09;5047867;28;20036;-72
2021/11/24 05:52:49;;;;;;;77.80;35.97;;;;;;;5.85;84.56;100419.84;5048403;28;20032;-70
2021/11/24 05:55:15;;;;;;;67.82;33.08;;;;;;;5.85;84.77;100414.59;5046669;28;20029;-71
2021/11/24 05:57:40;;;;;;;61.65;32.00;;;;;;;5.87;84.13;100418.91;5048465;28;20044;-71
2021/11/24 06:00:06;;;;;;;68.28;34.20;;;;;;;5.90;84.11;100421.47;5045392;28;20025;-71
2021/11/24 06:02:32;;;;;;;57.97;30.90;;;;;;;5.89;84.07;100413.66;5025421;28;20037;-71
2021/11/24 06:04:58;;;;;;;57.78;32.17;;;;;;;5.89;84.40;100419.75;5028462;28;20105;-72
2021/11/24 06:07:23;;;;;;;57.28;30.25;;;;;;;5.91;83.49;100417.97;5027573;28;20052;-71
2021/11/24 06:09:48;;;;;;;55.95;28.52;;;;;;;5.94;83.93;100415.31;5027275;28;20060;-73
2021/11/24 06:12:15;;;;;;;50.65;27.52;;;;;;;5.95;83.08;100405.72;5028097;28;20041;-72
2021/11/24 06:14:41;;;;;;;57.03;28.73;;;;;;;5.95;83.06;100405.72;5028549;28;20378;-73
2021/11/24 06:17:07;;;;;;;46.60;27.85;;;;;;;5.95;82.90;100405.72;5029233;28;20041;-72
2021/11/24 06:19:33;;;;;;;51.20;28.58;;;;;;;5.95;82.84;100408.31;5028357;28;20455;-72
2021/11/24 06:21:58;;;;;;;52.50;28.52;;;;;;;5.91;82.83;100409.28;5010952;28;20040;-72
2021/11/24 06:24:24;;;;;;;49.58;27.23;;;;;;;5.90;82.60;100397.06;5033544;28;20049;-72
2021/11/24 06:26:49;;;;;;;49.78;26.45;;;;;;;5.91;82.83;100401.41;5027416;28;20132;-72
2021/11/24 06:29:14;;;;;;;44.95;24.83;;;;;;;5.93;83.03;100403.09;5025410;28;20029;-71
2021/11/24 06:31:40;;;;;;;76.10;32.20;;;;;;;5.86;82.50;100401.50;5025890;28;20116;-72
2021/11/24 06:34:05;;;;;;;46.03;24.70;;;;;;;5.88;82.94;100393.59;5028417;28;20052;-72
2021/11/24 06:36:30;;;;;;;53.05;28.13;;;;;;;5.87;82.71;100391.91;5026901;28;20030;-72
2021/11/24 06:38:56;;;;;;;41.22;23.02;;;;;;;5.83;82.79;100385.84;5027874;28;20032;-72
2021/11/24 06:41:22;;;;;;;49.05;26.23;;;;;;;5.81;82.90;100398.97;5027529;28;20045;-71
2021/11/24 06:43:47;;;;;;;47.42;25.27;;;;;;;5.84;82.71;100390.19;5027158;28;20132;-72
2021/11/24 06:46:13;;;;;;;51.03;25.38;;;;;;;5.81;82.26;100390.28;5027191;28;20038;-72
2021/11/24 06:48:38;;;;;;;40.88;22.50;;;;;;;5.81;82.48;100391.13;5026066;28;20892;-71
2021/11/24 06:51:03;;;;;;;38.35;22.85;;;;;;;5.85;82.65;100391.06;5027660;28;20064;-73
2021/11/24 06:53:29;;;;;;;42.90;24.38;;;;;;;5.88;82.42;100389.25;5027918;28;20053;-72
2021/11/24 06:55:54;;;;;;;48.08;25.23;;;;;;;5.91;82.53;100398.81;5026372;28;20044;-73
2021/11/24 06:58:20;;;;;;;43.67;23.88;;;;;;;5.89;82.23;100393.59;5027993;28;20037;-72
2021/11/24 07:00:45;;;;;;;39.85;23.73;;;;;;;5.89;82.33;100396.19;5027490;28;20088;-73
2021/11/24 07:03:11;;;;;;;44.80;24.65;;;;;;;5.90;82.29;100392.69;5027551;28;20029;-73
2021/11/24 07:05:37;;;;;;;42.40;23.33;;;;;;;5.91;82.47;100396.19;5026809;28;20034;-73
2021/11/24 07:08:03;;;;;;;46.90;23.48;;;;;;;5.94;82.25;100396.16;5029142;28;20060;-73
2021/11/24 07:10:28;;;;;;;40.20;21.75;;;;;;;5.94;82.49;100397.00;5029321;28;20832;-72
2021/11/24 07:12:54;;;;;;;43.72;21.80;;;;;;;5.95;81.89;100401.31;5030395;28;20637;-73
2021/11/24 07:15:19;;;;;;;46.33;23.45;;;;;;;6.05;87.74;100396.78;5030528;28;20055;-63
2021/11/24 07:17:45;;;;;;;49.38;27.23;;;;;;;6.47;84.76;100398.50;5030718;28;20037;-64
2021/11/24 07:20:11;;;;;;;49.83;26.25;;;;;;;6.51;82.30;100394.91;5027781;28;20037;-69
2021/11/24 07:22:36;;;;;;;47.88;26.20;;;;;;;6.44;79.70;100395.03;5028206;28;20045;-72
2021/11/24 07:25:03;;;;;;;39.47;22.88;;;;;;;6.36;80.23;100398.75;5027827;28;20034;-72
2021/11/24 07:27:28;;;;;;;44.35;23.77;;;;;;;6.32;80.16;100397.06;5027255;28;20421;-73
2021/11/24 07:29:54;;;;;;;46.95;25.70;;;;;;;6.28;80.35;100393.69;5026897;28;20037;-71
2021/11/24 07:32:19;;;;;;;40.53;23.55;;;;;;;6.27;80.42;100391.94;5026291;28;20041;-73
2021/11/24 07:34:44;;;;;;;43.05;22.15;;;;;;;6.23;80.44;100387.69;5027914;28;20029;-72
2021/11/24 07:37:10;;;;;;;50.83;26.35;;;;;;;6.19;80.12;100376.41;5029790;28;20041;-74
2021/11/24 07:39:35;;;;;;;50.60;28.45;;;;;;;6.17;80.29;100379.94;5027575;28;20030;-72
2021/11/24 07:42:01;;;;;;;43.88;26.13;;;;;;;6.16;81.05;100373.84;5027709;28;20524;-72
2021/11/24 07:44:26;;;;;;;57.22;27.45;;;;;;;6.15;80.64;100381.72;5026650;28;20124;-73
2021/11/24 07:46:51;;;;;;;48.17;26.55;;;;;;;6.13;80.54;100371.31;5026919;28;20057;-72
2021/11/24 07:49:17;;;;;;;43.10;22.60;;;;;;;6.18;80.63;100379.06;5026285;28;20033;-73
2021/11/24 07:51:42;;;;;;;37.90;24.80;;;;;;;6.20;80.51;100369.41;5024974;28;20096;-73
2021/11/24 07:54:08;;;;;;;47.45;24.80;;;;;;;6.24;80.11;100373.69;5026641;28;20048;-73
2021/11/24 07:56:33;;;;;;;41.20;25.10;;;;;;;6.24;80.05;100373.69;5025795;28;20416;-71
2021/11/24 07:58:58;;;;;;;41.95;23.23;;;;;;;6.27;80.35;100370.13;5027372;28;20057;-73
2021/11/24 08:01:24;;;;;;;45.72;25.35;;;;;;;6.30;79.95;100370.06;5026864;28;20060;-72
2021/11/24 08:03:49;;;;;;;47.53;25.10;;;;;;;6.31;79.48;100370.03;5028794;28;20037;-72
2021/11/24 08:06:15;;;;;;;44.78;26.08;;;;;;;6.33;79.82;100362.16;5009617;28;20034;-72
2021/11/24 08:08:40;;;;;;;46.85;24.17;;;;;;;6.33;79.54;100363.00;5026571;28;20030;-73
2021/11/24 08:11:05;;;;;;;49.75;25.52;;;;;;;6.35;79.38;100360.34;5026120;28;20092;-73
2021/11/24 08:13:31;;;;;;;38.28;23.70;;;;;;;6.33;80.07;100363.00;5027974;28;20425;-72
2021/11/24 08:15:57;;;;;;;42.15;24.10;;;;;;;6.39;79.86;100362.88;5027657;28;20120;-72
2021/11/24 08:18:22;;;;;;;39.90;21.60;;;;;;;6.45;79.81;100365.34;5027336;28;20087;-72
2021/11/24 08:20:48;;;;;;;44.35;25.30;;;;;;;6.46;79.34;100360.97;5025037;28;20421;-72
2021/11/24 08:23:14;;;;;;;40.75;22.85;;;;;;;6.51;79.30;100360.88;5030522;28;20060;-73
2021/11/24 08:25:39;;;;;;;53.55;28.20;;;;;;;6.51;79.31;100356.47;5030793;28;20460;-72
2021/11/24 08:28:05;;;;;;;46.88;25.10;;;;;;;6.50;79.01;100353.88;5030749;28;20038;-73
2021/11/24 08:30:30;;;;;;;54.05;29.35;;;;;;;6.54;79.15;100343.31;5030129;28;20481;-73
2021/11/24 08:32:56;;;;;;;51.58;27.40;;;;;;;6.57;78.87;100340.63;5030796;28;20037;-73
2021/11/24 08:35:23;;;;;;;51.05;27.02;;;;;;;6.61;78.67;100334.41;5031419;28;20477;-74
2021/11/24 08:37:48;;;;;;;48.35;25.25;;;;;;;6.63;78.69;100332.63;5031351;28;20036;-72
2021/11/24 08:40:14;;;;;;;43.55;24.67;;;;;;;6.73;78.59;100342.88;5035415;28;20038;-73
2021/11/24 08:42:40;;;;;;;46.95;26.13;;;;;;;6.78;78.23;100330.53;5033766;28;20029;-72
2021/11/24 08:45:08;;;;;;;46.08;25.95;;;;;;;6.83;77.52;100329.50;5034874;28;20030;-71
2021/11/24 08:47:34;;;;;;;39.00;22.73;;;;;;;6.72;76.40;100326.31;5034043;28;20033;-72
2021/11/24 08:50:00;;;;;;;31.70;21.02;;;;;;;6.71;77.36;100324.56;5032342;28;20124;-73
2021/11/24 08:52:25;;;;;;;47.03;25.58;;;;;;;6.78;76.86;100325.28;5033663;28;20053;-72
2021/11/24 08:54:51;;;;;;;39.75;23.17;;;;;;;6.84;76.61;100325.13;5031441;28;20036;-73
2021/11/24 08:57:16;;;;;;;38.17;22.77;;;;;;;6.86;76.49;100316.31;5030313;28;20030;-72
2021/11/24 08:59:42;;;;;;;39.83;21.35;;;;;;;6.91;76.17;100310.97;5029274;28;20040;-74
2021/11/24 09:02:09;;;;;;;35.85;19.98;;;;;;;6.88;75.24;100314.53;5031903;28;20502;-73
2021/11/24 09:04:34;;;;;;;45.22;23.55;;;;;;;6.92;75.93;100315.31;5031618;28;20034;-72
2021/11/24 09:07:00;;;;;;;37.17;19.63;;;;;;;6.96;75.21;100324.81;5030856;28;20044;-72
2021/11/24 09:09:26;;;;;;;37.85;20.90;;;;;;;6.97;75.39;100313.44;5030145;28;20045;-72
2021/11/24 09:11:51;;;;;;;35.58;22.58;;;;;;;7.01;75.39;100312.44;5030023;28;20119;-73
2021/11/24 09:14:16;;;;;;;35.78;21.63;;;;;;;7.08;74.84;100314.00;5029992;28;20024;-73
2021/11/24 09:16:42;;;;;;;34.28;19.55;;;;;;;7.16;74.60;100311.19;5030083;28;20039;-74
2021/11/24 09:19:07;;;;;;;43.92;22.13;;;;;;;7.25;73.56;100315.31;5032643;28;20053;-73
2021/11/24 09:21:32;;;;;;;42.28;20.95;;;;;;;7.27;73.87;100305.66;5034227;28;20061;-72
2021/11/24 09:24:04;;;;;;;27.15;16.83;;;;;;;7.32;73.16;100303.75;5031255;28;20117;-72
2021/11/24 09:26:55;;;;;;;31.33;18.30;;;;;;;7.38;73.44;100295.72;5030084;28;20041;-73
2021/11/24 09:29:21;;;;;;;31.27;18.55;;;;;;;7.44;72.66;100284.22;5028719;28;20515;-73
2021/11/24 09:31:46;;;;;;;29.60;19.48;;;;;;;7.39;72.62;100284.34;5029523;28;20029;-72
2021/11/24 09:34:12;;;;;;;33.75;17.98;;;;;;;7.46;72.28;100287.66;5029748;28;20164;-73
2021/11/24 09:36:40;;;;;;;29.63;17.48;;;;;;;7.45;72.31;100285.91;5029616;28;20066;-72
2021/11/24 09:39:06;;;;;;;29.05;15.90;;;;;;;7.55;72.03;100278.66;5029177;28;20032;-73
2021/11/24 09:41:37;;;;;;;34.65;18.70;;;;;;;7.57;70.02;100276.84;5028854;28;20041;-73
2021/11/24 09:44:04;;;;;;;24.40;12.85;;;;;;;7.64;69.20;100275.75;5028980;28;20084;-73
2021/11/24 09:46:31;;;;;;;30.15;16.58;;;;;;;7.64;69.32;100275.75;5029467;28;20113;-72
2021/11/24 09:48:59;;;;;;;21.98;13.50;;;;;;;7.80;68.57;100274.41;5024870;28;20099;-73
2021/11/24 09:51:26;;;;;;;19.13;13.82;;;;;;;7.95;67.53;100267.84;5028827;28;20142;-73
2021/11/24 09:53:52;;;;;;;20.83;13.68;;;;;;;8.04;67.02;100264.91;5028897;28;20038;-73
2021/11/24 09:56:18;;;;;;;23.50;11.93;;;;;;;8.07;66.52;100259.56;5028499;28;20140;-73
2021/11/24 09:58:43;;;;;;;25.73;14.73;;;;;;;8.09;66.93;100256.88;5028538;28;20051;-73
2021/11/24 10:01:08;;;;;;;26.85;15.27;;;;;;;8.01;66.78;100256.28;5029018;28;20721;-73
2021/11/24 10:03:34;;;;;;;26.35;13.93;;;;;;;7.87;66.16;100251.44;5028745;28;20103;-72
2021/11/24 10:06:00;;;;;;;25.55;15.23;;;;;;;7.94;66.67;100238.06;5029190;28;20057;-72
2021/11/24 10:08:31;;;;;;;28.00;15.40;;;;;;;8.00;67.28;100234.41;5028497;28;20109;-73
2021/11/24 10:10:57;;;;;;;21.27;12.35;;;;;;;8.20;66.40;100239.03;5028368;28;20931;-73
2021/11/24 10:13:22;;;;;;;19.48;12.52;;;;;;;8.33;65.29;100231.59;5028615;28;20033;-73
2021/11/24 10:15:52;;;;;;;17.35;12.10;;;;;;;8.36;64.13;100228.88;5028724;28;20096;-72
2021/11/24 10:18:26;;;;;;;17.10;10.32;;;;;;;8.35;62.88;100221.91;5028511;28;20029;-72
2021/11/24 10:21:14;;;;;;;17.38;5.38;;;;;;;8.17;59.05;100229.50;5027873;28;20079;-72
2021/11/24 10:23:46;;;;;;;7.10;4.72;;;;;;;8.11;59.56;100223.56;5027738;28;20464;-74
2021/11/24 10:26:15;;;;;;;6.60;4.22;;;;;;;8.14;58.79;100215.56;5027870;28;20033;-74
2021/11/24 10:28:48;;;;;;;4.50;2.58;;;;;;;8.24;56.37;100208.25;5025846;28;20075;-72
2021/11/24 10:31:26;;;;;;;5.88;2.67;;;;;;;8.29;55.94;100206.34;5028107;28;20038;-73
2021/11/24 10:33:51;;;;;;;8.57;2.97;;;;;;;8.20;55.24;100207.50;5028310;28;20807;-73
2021/11/24 10:36:17;;;;;;;6.32;3.15;;;;;;;8.00;54.67;100200.28;5028093;28;20060;-75
2021/11/24 10:38:45;;;;;;;4.22;2.58;;;;;;;8.00;56.22;100194.16;5027566;28;20171;-71
2021/11/24 10:41:24;;;;;;;4.20;2.00;;;;;;;8.11;55.98;100190.28;5028000;28;20030;-74
2021/11/24 10:43:49;;;;;;;5.68;2.58;;;;;;;8.07;54.90;100182.53;5025907;28;20029;-72
2021/11/24 10:46:17;;;;;;;5.85;2.65;;;;;;;8.05;55.11;100181.72;5027621;28;20119;-73
2021/11/24 10:48:42;;;;;;;12.13;2.60;;;;;;;7.90;54.16;100170.84;5027470;28;20408;-73
2021/11/24 10:51:45;;;;;;;2.88;1.75;;;;;;;7.87;54.28;100180.56;5028086;28;20026;-73
2021/11/24 10:54:16;;;;;;;3.28;1.98;;;;;;;7.79;55.12;100170.31;5027477;28;20025;-73
2021/11/24 10:57:01;;;;;;;3.92;2.33;;;;;;;7.81;55.07;100152.75;5029534;28;20033;-73
2021/11/24 10:59:28;;;;;;;4.13;2.13;;;;;;;7.84;55.93;100154.41;5027597;28;20034;-73
2021/11/24 11:02:15;;;;;;;5.05;2.13;;;;;;;7.92;55.54;100155.88;5027090;28;20268;-73
2021/11/24 11:04:58;;;;;;;3.28;2.15;;;;;;;7.78;54.45;100152.84;5007270;28;20039;-73
2021/11/24 11:07:25;;;;;;;3.42;1.90;;;;;;;7.71;54.71;100146.09;5018698;28;20065;-72
2021/11/24 11:10:06;;;;;;;3.47;1.98;;;;;;;7.68;54.90;100140.94;5007738;28;20566;-73
2021/11/24 11:12:33;;;;;;;3.70;2.35;;;;;;;7.65;55.10;100134.00;4996109;28;20046;-73
2021/11/24 11:15:28;;;;;;;4.65;2.55;;;;;;;7.57;55.31;100135.16;4998619;28;20480;-74
2021/11/24 11:17:59;;;;;;;4.18;2.20;;;;;;;7.61;55.60;100128.91;5005719;28;20064;-74